Time;durP1;ratioP1;P1;durP2;ratioP2;P2;SDS_P1;SDS_P2;PMS_P1;PMS_P2;Temp;Humidity;BMP_temperature;BMP_pressure;BME280_temperature;BME280_humidity;BME280_pressure;Samples;Min_cycle;Max_cycle;Signal;HPM_P1;HPM_P2
2021/03/08 00:01:12;;;;;;;6.93;2.10;;;0.40;99.90;;;;;;5004415;28;20186;-50
2021/03/08 00:03:37;;;;;;;8.37;1.90;;;0.40;99.90;;;;;;4985290;28;20198;-52
2021/03/08 00:06:03;;;;;;;8.20;2.43;;;0.40;99.90;;;;;;4985018;28;20204;-49
2021/03/08 00:08:29;;;;;;;5.63;1.87;;;0.40;99.90;;;;;;4983399;28;20316;-51
2021/03/08 00:10:54;;;;;;;7.17;2.67;;;0.40;99.90;;;;;;4995047;28;20860;-49
2021/03/08 00:13:20;;;;;;;7.00;2.30;;;0.30;99.90;;;;;;4993617;28;20197;-50
2021/03/08 00:15:45;;;;;;;9.07;2.67;;;0.30;99.90;;;;;;4984796;28;20201;-54
2021/03/08 00:18:11;;;;;;;5.33;1.80;;;0.20;99.90;;;;;;4986218;28;20200;-50
2021/03/08 00:20:36;;;;;;;6.67;1.93;;;0.20;99.90;;;;;;4997973;28;20197;-53
2021/03/08 00:23:02;;;;;;;6.73;2.60;;;0.20;99.90;;;;;;4992725;28;20201;-51
2021/03/08 00:25:30;;;;;;;10.67;2.00;;;0.10;99.90;;;;;;4985899;28;20212;-53
2021/03/08 00:27:56;;;;;;;7.07;2.20;;;0.10;99.90;;;;;;5000644;28;20173;-49
2021/03/08 00:30:22;;;;;;;6.97;2.03;;;0.10;99.90;;;;;;5003643;28;20217;-50
2021/03/08 00:32:48;;;;;;;4.93;1.80;;;0.00;99.90;;;;;;4980950;28;21743;-49
2021/03/08 00:35:14;;;;;;;6.83;1.90;;;0.00;99.90;;;;;;4995541;28;20298;-48
2021/03/08 00:37:40;;;;;;;7.43;2.53;;;0.00;99.90;;;;;;5001186;28;20648;-49
2021/03/08 00:40:12;;;;;;;5.83;1.60;;;0.00;99.90;;;;;;4993040;28;20228;-49
2021/03/08 00:42:39;;;;;;;7.60;2.33;;;0.00;99.90;;;;;;5001847;28;20193;-52
2021/03/08 00:45:19;;;;;;;4.70;1.87;;;0.00;99.90;;;;;;4999606;28;20252;-51
2021/03/08 00:47:50;;;;;;;5.17;1.70;;;-0.10;99.90;;;;;;4998317;28;20182;-51
2021/03/08 00:50:26;;;;;;;9.13;2.53;;;-0.10;99.90;;;;;;4988425;28;20221;-54
2021/03/08 00:52:51;;;;;;;9.50;2.67;;;0.00;99.90;;;;;;4991611;28;20797;-53
2021/03/08 00:55:17;;;;;;;6.60;2.50;;;-0.10;99.90;;;;;;4982809;28;20206;-48
2021/03/08 00:57:43;;;;;;;3.67;1.63;;;-0.10;99.90;;;;;;4991590;28;20196;-53
2021/03/08 01:00:12;;;;;;;6.23;1.90;;;-0.10;99.90;;;;;;5001825;28;20177;-52
2021/03/08 01:02:43;;;;;;;5.70;2.27;;;-0.10;99.90;;;;;;4997781;28;20695;-54
2021/03/08 01:05:15;;;;;;;3.30;1.53;;;-0.10;99.90;;;;;;5004746;28;20716;-51
2021/03/08 01:07:42;;;;;;;8.37;2.30;;;-0.20;99.90;;;;;;4990932;28;20211;-56
2021/03/08 01:10:29;;;;;;;10.70;1.77;;;-0.20;99.90;;;;;;4999040;28;20707;-51
2021/03/08 01:12:57;;;;;;;5.77;1.83;;;-0.20;99.90;;;;;;4980324;28;20234;-50
2021/03/08 01:15:25;;;;;;;9.00;2.20;;;-0.20;99.90;;;;;;5017848;28;20197;-52
2021/03/08 01:17:50;;;;;;;5.77;2.00;;;-0.30;99.90;;;;;;5007247;28;20232;-51
2021/03/08 01:20:19;;;;;;;5.57;1.77;;;-0.30;99.90;;;;;;4986536;28;20205;-57
2021/03/08 01:22:45;;;;;;;5.90;2.00;;;-0.30;99.90;;;;;;4999485;28;20236;-51
2021/03/08 01:25:14;;;;;;;6.60;1.50;;;-0.40;99.90;;;;;;4986267;28;20201;-56
2021/03/08 01:27:40;;;;;;;9.13;2.00;;;-0.50;99.90;;;;;;4986114;28;20193;-52
2021/03/08 01:30:16;;;;;;;3.33;1.43;;;-0.50;99.90;;;;;;5005441;28;20231;-56
2021/03/08 01:32:41;;;;;;;8.13;1.53;;;-0.50;99.90;;;;;;5004891;28;20925;-49
2021/03/08 01:35:08;;;;;;;1.57;1.30;;;-0.50;99.90;;;;;;4998093;28;20214;-56
2021/03/08 01:37:34;;;;;;;5.70;1.90;;;-0.50;99.90;;;;;;4988461;28;20181;-48
2021/03/08 01:40:00;;;;;;;2.23;1.67;;;-0.60;99.90;;;;;;5004497;28;20227;-52
2021/03/08 01:42:26;;;;;;;9.10;2.10;;;-0.60;99.90;;;;;;4996148;28;20235;-52
2021/03/08 01:44:52;;;;;;;7.90;1.90;;;-0.60;99.90;;;;;;4998407;28;20215;-51
2021/03/08 01:47:17;;;;;;;5.77;1.83;;;-0.60;99.90;;;;;;4999501;28;20189;-52
2021/03/08 01:49:43;;;;;;;4.60;2.03;;;-0.70;99.90;;;;;;4994721;28;20205;-50
2021/03/08 01:52:12;;;;;;;7.93;2.00;;;-0.70;99.90;;;;;;4983458;28;20188;-52
2021/03/08 01:54:38;;;;;;;5.60;1.40;;;-0.60;99.90;;;;;;4992782;28;20211;-48
2021/03/08 01:57:06;;;;;;;4.37;1.70;;;-0.70;99.90;;;;;;5002853;28;20639;-50
2021/03/08 01:59:32;;;;;;;3.70;1.60;;;-0.80;99.90;;;;;;4992747;28;20342;-51
2021/03/08 02:01:58;;;;;;;4.97;1.13;;;-0.80;99.90;;;;;;4996854;28;20197;-49
2021/03/08 02:04:23;;;;;;;4.47;1.40;;;-0.80;99.90;;;;;;4998871;28;20173;-52
2021/03/08 02:06:49;;;;;;;8.03;1.60;;;-0.80;99.90;;;;;;4979033;28;20709;-53
2021/03/08 02:09:15;;;;;;;4.63;1.30;;;-0.90;99.90;;;;;;4996140;28;20604;-55
2021/03/08 02:11:45;;;;;;;8.23;1.30;;;-0.90;99.90;;;;;;4998026;28;20279;-55
2021/03/08 02:14:39;;;;;;;3.93;1.27;;;-0.90;99.90;;;;;;4993603;28;20223;-51
2021/03/08 02:17:15;;;;;;;4.23;1.47;;;-0.90;99.90;;;;;;5002938;28;20177;-53
2021/03/08 02:20:07;;;;;;;5.87;1.50;;;-1.00;99.90;;;;;;4999691;28;20303;-50
2021/03/08 02:22:57;;;;;;;4.17;1.10;;;-1.00;99.90;;;;;;4979989;28;21449;-49
2021/03/08 02:25:46;;;;;;;6.70;1.60;;;-1.10;99.90;;;;;;4994820;28;20239;-52
2021/03/08 02:28:44;;;;;;;6.77;1.43;;;-1.10;99.90;;;;;;5004800;28;20784;-53
2021/03/08 02:31:12;;;;;;;2.93;1.30;;;-1.20;99.90;;;;;;4998235;28;20196;-53
2021/03/08 02:33:40;;;;;;;2.03;1.27;;;-1.10;99.90;;;;;;4997463;28;20195;-50
2021/03/08 02:36:08;;;;;;;4.53;1.83;;;-1.20;99.90;;;;;;5005712;28;20192;-54
2021/03/08 02:38:43;;;;;;;3.10;1.40;;;-1.30;99.90;;;;;;4988733;28;20838;-55
2021/03/08 02:41:15;;;;;;;4.33;0.90;;;-1.30;99.90;;;;;;5002688;28;20199;-53
2021/03/08 02:43:43;;;;;;;3.13;1.13;;;-1.30;99.90;;;;;;4991157;28;20236;-53
2021/03/08 02:46:27;;;;;;;3.67;1.20;;;-1.40;99.90;;;;;;4998278;28;20304;-53
2021/03/08 02:48:54;;;;;;;4.57;1.40;;;-1.40;99.90;;;;;;5005560;28;20783;-51
2021/03/08 02:51:22;;;;;;;4.47;1.30;;;-1.40;99.90;;;;;;4997559;28;20184;-52
2021/03/08 02:53:50;;;;;;;3.90;1.03;;;-1.50;99.90;;;;;;4979907;28;20850;-53
2021/03/08 02:56:19;;;;;;;5.63;1.17;;;-1.50;99.90;;;;;;5000438;28;20567;-53
2021/03/08 02:58:48;;;;;;;4.73;1.20;;;-1.50;99.90;;;;;;4984737;28;20186;-54
2021/03/08 03:01:16;;;;;;;5.23;1.53;;;-1.50;99.90;;;;;;4982418;28;20182;-51
2021/03/08 03:03:45;;;;;;;4.23;1.23;;;-1.50;99.90;;;;;;5000587;28;20184;-51
2021/03/08 03:06:12;;;;;;;3.57;1.07;;;-1.50;99.90;;;;;;4993852;28;20263;-52
2021/03/08 03:08:40;;;;;;;4.67;1.13;;;-1.60;99.90;;;;;;4983193;28;20260;-50
2021/03/08 03:11:07;;;;;;;7.63;1.43;;;-1.70;99.90;;;;;;4986332;28;20197;-50
2021/03/08 03:13:36;;;;;;;2.70;0.90;;;-1.70;99.90;;;;;;4995872;28;20173;-49
2021/03/08 03:16:04;;;;;;;4.57;0.93;;;-1.80;99.90;;;;;;5005255;28;20212;-53
2021/03/08 03:18:30;;;;;;;1.67;1.03;;;-1.80;99.90;;;;;;4994955;28;20214;-48
2021/03/08 03:20:57;;;;;;;5.80;1.40;;;-1.80;99.90;;;;;;5005288;28;20177;-53
2021/03/08 03:23:26;;;;;;;3.90;1.07;;;-1.80;99.90;;;;;;5001025;28;20180;-55
2021/03/08 03:25:52;;;;;;;3.43;1.07;;;-1.80;99.90;;;;;;4983342;28;20217;-52
2021/03/08 03:28:20;;;;;;;4.93;1.57;;;-1.80;99.90;;;;;;4991037;28;20190;-56
2021/03/08 03:30:46;;;;;;;3.83;1.00;;;-1.80;99.90;;;;;;4984429;28;20287;-48
2021/03/08 03:33:14;;;;;;;2.97;1.53;;;-1.80;99.90;;;;;;4985874;28;20189;-55
2021/03/08 03:35:39;;;;;;;4.90;1.17;;;-1.80;99.90;;;;;;4996516;28;20209;-54
2021/03/08 03:38:05;;;;;;;2.07;1.20;;;-1.80;99.90;;;;;;4985500;28;20177;-57
2021/03/08 03:40:31;;;;;;;2.83;1.40;;;-1.70;99.90;;;;;;4971344;28;20232;-49
2021/03/08 03:42:56;;;;;;;3.93;1.30;;;-1.70;99.90;;;;;;5004430;28;20274;-51
2021/03/08 03:45:23;;;;;;;2.23;1.20;;;-1.70;99.90;;;;;;4981523;28;20221;-57
2021/03/08 03:47:50;;;;;;;3.10;0.97;;;-1.70;99.90;;;;;;4985113;28;20180;-52
2021/03/08 03:50:18;;;;;;;4.13;1.33;;;-1.80;99.90;;;;;;5002257;28;20804;-54
2021/03/08 03:52:45;;;;;;;4.07;1.20;;;-1.80;99.90;;;;;;5003733;28;20169;-54
2021/03/08 03:55:12;;;;;;;3.67;1.40;;;-1.80;99.90;;;;;;5006051;28;20279;-54
2021/03/08 03:57:46;;;;;;;2.43;1.07;;;-1.80;99.90;;;;;;4986658;28;20185;-49
2021/03/08 04:00:13;;;;;;;6.20;1.57;;;-1.90;99.90;;;;;;4995206;28;20189;-53
2021/03/08 04:02:44;;;;;;;4.93;1.30;;;-1.90;99.90;;;;;;4987936;28;20284;-49
2021/03/08 04:05:14;;;;;;;5.20;1.50;;;-2.00;99.90;;;;;;4997828;28;20299;-56
2021/03/08 04:07:42;;;;;;;4.73;1.30;;;-2.00;99.90;;;;;;4992540;28;20181;-51
2021/03/08 04:10:11;;;;;;;6.17;1.40;;;-2.00;99.90;;;;;;4996851;28;20224;-56
2021/03/08 04:12:38;;;;;;;4.00;1.27;;;-2.10;99.90;;;;;;4976436;28;20193;-53
2021/03/08 04:15:10;;;;;;;2.77;1.27;;;-2.10;99.90;;;;;;4999544;28;20193;-48
2021/03/08 04:17:39;;;;;;;2.80;1.37;;;-2.10;99.90;;;;;;5005573;28;20184;-50
2021/03/08 04:20:10;;;;;;;4.93;1.43;;;-2.10;99.90;;;;;;5000036;28;20200;-54
2021/03/08 04:22:36;;;;;;;3.63;1.33;;;-2.10;99.90;;;;;;5000836;28;20933;-52
2021/03/08 04:25:03;;;;;;;2.63;1.13;;;-2.00;99.90;;;;;;5004226;28;20232;-52
2021/03/08 04:27:30;;;;;;;4.67;1.40;;;-2.00;99.90;;;;;;4986169;28;20196;-51
2021/03/08 04:29:57;;;;;;;2.47;1.50;;;-2.00;99.90;;;;;;4995563;28;20212;-49
2021/03/08 04:32:23;;;;;;;3.50;1.10;;;-2.00;99.90;;;;;;5000487;28;20177;-57
2021/03/08 04:34:50;;;;;;;2.70;1.03;;;-2.00;99.90;;;;;;4997757;28;20188;-49
2021/03/08 04:37:16;;;;;;;5.80;1.40;;;-2.10;99.90;;;;;;5001610;28;20192;-54
2021/03/08 04:39:44;;;;;;;3.43;1.00;;;-2.20;99.90;;;;;;4995721;28;20181;-52
2021/03/08 04:42:12;;;;;;;4.03;1.37;;;-2.30;99.90;;;;;;4980585;28;20694;-57
2021/03/08 04:44:40;;;;;;;7.57;1.00;;;-2.30;99.90;;;;;;4989538;28;20227;-49
2021/03/08 04:47:06;;;;;;;1.60;0.80;;;-2.30;99.90;;;;;;5005385;28;20555;-56
2021/03/08 04:49:33;;;;;;;3.70;1.07;;;-2.30;99.90;;;;;;4997145;28;20223;-54
2021/03/08 04:52:00;;;;;;;4.07;1.13;;;-2.30;99.90;;;;;;5007554;28;20215;-53
2021/03/08 04:54:26;;;;;;;4.10;1.10;;;-2.30;99.90;;;;;;5003362;28;20177;-48
2021/03/08 04:56:53;;;;;;;2.63;0.90;;;-2.30;99.90;;;;;;5006956;28;20207;-51
2021/03/08 04:59:19;;;;;;;3.00;1.10;;;-2.30;99.90;;;;;;4990356;28;20204;-56
2021/03/08 05:01:47;;;;;;;4.07;1.40;;;-2.30;99.90;;;;;;4999134;28;20236;-51
2021/03/08 05:04:14;;;;;;;2.97;1.20;;;-2.30;99.90;;;;;;4985482;28;20178;-55
2021/03/08 05:06:42;;;;;;;2.50;1.20;;;-2.40;99.90;;;;;;4992156;28;20204;-51
2021/03/08 05:09:09;;;;;;;4.90;1.50;;;-2.30;99.90;;;;;;4997716;28;20252;-56
2021/03/08 05:11:36;;;;;;;3.80;1.40;;;-2.40;99.90;;;;;;5003897;28;20260;-54
2021/03/08 05:14:08;;;;;;;3.10;1.40;;;-2.40;99.90;;;;;;4993632;28;20202;-49
2021/03/08 05:16:36;;;;;;;4.50;1.30;;;-2.40;99.90;;;;;;4997109;28;20221;-54
2021/03/08 05:19:04;;;;;;;5.67;2.00;;;-2.50;99.90;;;;;;4987478;28;20189;-53
2021/03/08 05:21:31;;;;;;;3.90;1.73;;;-2.40;99.90;;;;;;4980705;28;20258;-49
2021/03/08 05:23:58;;;;;;;3.63;0.93;;;-2.50;99.90;;;;;;5007011;28;20192;-53
2021/03/08 05:26:25;;;;;;;4.03;1.33;;;-2.40;99.90;;;;;;5002943;28;20268;-56
2021/03/08 05:28:53;;;;;;;2.70;1.40;;;-2.40;99.90;;;;;;4989772;28;20221;-50
2021/03/08 05:31:20;;;;;;;2.97;1.37;;;-2.40;99.90;;;;;;4992146;28;20692;-50
2021/03/08 05:33:50;;;;;;;1.97;1.40;;;-2.50;99.90;;;;;;5002741;28;20263;-51
2021/03/08 05:36:18;;;;;;;6.73;1.63;;;-2.50;99.90;;;;;;4990513;28;20212;-50
2021/03/08 05:38:45;;;;;;;4.80;1.77;;;-2.50;99.90;;;;;;4995247;28;20192;-54
2021/03/08 05:41:23;;;;;;;8.07;2.17;;;-2.60;99.90;;;;;;4986224;28;20197;-52
2021/03/08 05:43:50;;;;;;;3.60;1.83;;;-2.60;99.90;;;;;;4994441;28;20264;-47
2021/03/08 05:46:24;;;;;;;8.63;1.80;;;-2.60;99.90;;;;;;4985870;28;20209;-53
2021/03/08 05:49:23;;;;;;;2.77;1.87;;;-2.60;99.90;;;;;;4996874;28;20227;-53
2021/03/08 05:52:18;;;;;;;2.47;1.80;;;-2.60;99.90;;;;;;5000923;28;20188;-52
2021/03/08 05:55:24;;;;;;;5.13;1.33;;;-2.50;99.90;;;;;;4995363;28;20722;-50
2021/03/08 05:58:24;;;;;;;7.17;1.33;;;-2.50;99.90;;;;;;4989029;28;20691;-50
2021/03/08 06:01:27;;;;;;;3.37;1.43;;;-2.60;99.90;;;;;;4984697;28;20193;-50
2021/03/08 06:04:11;;;;;;;2.03;1.13;;;-2.60;99.90;;;;;;4983931;28;20196;-54
2021/03/08 06:07:14;;;;;;;3.97;1.37;;;-2.50;99.90;;;;;;5000394;28;20208;-53
2021/03/08 06:09:55;;;;;;;4.00;1.30;;;-2.50;99.90;;;;;;4987692;28;20278;-48
2021/03/08 06:12:27;;;;;;;3.60;1.30;;;-2.50;99.90;;;;;;5001461;28;20183;-52
2021/03/08 06:14:57;;;;;;;3.57;1.23;;;-2.50;99.90;;;;;;4989082;28;20181;-51
2021/03/08 06:17:23;;;;;;;3.73;1.17;;;-2.50;99.90;;;;;;5001463;28;20196;-51
2021/03/08 06:19:50;;;;;;;5.73;1.30;;;-2.50;99.90;;;;;;4993303;28;20266;-51
2021/03/08 06:22:16;;;;;;;5.63;1.37;;;-2.50;99.90;;;;;;5004363;28;20365;-51
2021/03/08 06:24:44;;;;;;;5.17;1.17;;;-2.60;99.90;;;;;;4999202;28;20633;-52
2021/03/08 06:27:14;;;;;;;6.30;1.10;;;-2.50;99.90;;;;;;4999716;28;20208;-54
2021/03/08 06:29:41;;;;;;;7.07;2.83;;;-2.60;99.90;;;;;;4988204;28;20216;-53
2021/03/08 06:32:08;;;;;;;2.23;1.50;;;-2.60;99.90;;;;;;4989103;28;20204;-50
2021/03/08 06:34:34;;;;;;;4.80;1.93;;;-2.50;99.90;;;;;;4993159;28;20185;-53
2021/03/08 06:37:08;;;;;;;4.57;1.80;;;-2.50;99.90;;;;;;4985440;28;20185;-49
2021/03/08 06:39:39;;;;;;;4.07;1.53;;;-2.50;99.90;;;;;;4989481;28;20191;-51
2021/03/08 06:42:05;;;;;;;2.67;1.80;;;-2.50;99.90;;;;;;4989144;28;20197;-52
2021/03/08 06:44:32;;;;;;;3.87;1.50;;;-2.40;99.90;;;;;;4998353;28;20319;-52
2021/03/08 06:46:58;;;;;;;4.30;1.50;;;-2.40;99.90;;;;;;4983682;28;20235;-49
2021/03/08 06:49:24;;;;;;;4.30;1.93;;;-2.30;99.90;;;;;;4990852;28;20215;-54
2021/03/08 06:52:10;;;;;;;4.73;2.20;;;-2.20;99.90;;;;;;4996521;28;20193;-53
2021/03/08 06:54:38;;;;;;;2.37;2.17;;;-2.20;99.90;;;;;;4979067;28;20928;-55
2021/03/08 06:57:25;;;;;;;5.60;2.00;;;-2.10;99.90;;;;;;5003436;28;20207;-54
2021/03/08 07:00:03;;;;;;;4.17;1.90;;;-2.10;99.90;;;;;;4982934;28;20295;-55
2021/03/08 07:02:37;;;;;;;4.77;2.13;;;-2.10;99.90;;;;;;4980141;28;20201;-54
2021/03/08 07:05:04;;;;;;;6.10;2.00;;;-2.00;99.90;;;;;;5002945;28;20211;-55
2021/03/08 07:07:59;;;;;;;3.40;1.90;;;-2.00;99.90;;;;;;4996474;28;20189;-53
2021/03/08 07:10:36;;;;;;;2.73;1.93;;;-1.90;99.90;;;;;;4980302;28;20202;-54
2021/03/08 07:13:03;;;;;;;4.40;2.10;;;-1.90;99.90;;;;;;4993869;28;20546;-55
2021/03/08 07:15:29;;;;;;;3.43;2.23;;;-1.80;99.90;;;;;;4998638;28;20192;-54
2021/03/08 07:17:55;;;;;;;7.60;2.17;;;-1.70;99.90;;;;;;4980383;28;20263;-51
2021/03/08 07:20:21;;;;;;;4.63;2.17;;;-1.70;99.90;;;;;;4986673;28;20224;-52
2021/03/08 07:22:56;;;;;;;6.33;2.40;;;-1.60;99.90;;;;;;4996705;28;20372;-53
2021/03/08 07:25:31;;;;;;;3.40;1.80;;;-1.50;99.90;;;;;;4992919;28;20671;-53
2021/03/08 07:28:02;;;;;;;5.37;1.80;;;-1.40;99.90;;;;;;5004430;28;20211;-51
2021/03/08 07:30:46;;;;;;;2.67;1.90;;;-1.30;99.90;;;;;;4997237;28;20209;-53
2021/03/08 07:33:14;;;;;;;5.63;2.53;;;-1.20;99.90;;;;;;4986416;28;20189;-52
2021/03/08 07:35:42;;;;;;;3.57;2.17;;;-1.10;99.90;;;;;;4993231;28;20224;-54
2021/03/08 07:38:11;;;;;;;6.73;2.70;;;-1.00;99.90;;;;;;5004738;28;20181;-53
2021/03/08 07:40:39;;;;;;;5.10;2.00;;;-0.90;99.90;;;;;;4995549;28;20177;-55
2021/03/08 07:43:05;;;;;;;3.57;2.30;;;-0.80;99.90;;;;;;4998536;28;20841;-49
2021/03/08 07:45:42;;;;;;;7.60;3.27;;;-0.80;99.90;;;;;;5003106;28;20212;-53
2021/03/08 07:48:19;;;;;;;4.37;2.47;;;-0.60;99.90;;;;;;5023124;28;20268;-52
2021/03/08 07:50:47;;;;;;;5.37;2.37;;;-0.50;99.90;;;;;;4992405;28;20219;-52
2021/03/08 07:53:44;;;;;;;4.40;2.40;;;-0.40;99.90;;;;;;5007097;28;20207;-54
2021/03/08 07:56:10;;;;;;;7.10;2.40;;;-0.20;99.90;;;;;;5011495;28;20212;-50
2021/03/08 07:58:37;;;;;;;5.37;2.40;;;-0.10;99.90;;;;;;4994610;28;20434;-51
2021/03/08 08:01:09;;;;;;;6.80;2.30;;;0.00;99.90;;;;;;5002918;28;20196;-50
2021/03/08 08:03:38;;;;;;;4.63;1.90;;;0.10;99.90;;;;;;4983766;28;20185;-51
2021/03/08 08:06:05;;;;;;;4.13;2.07;;;0.20;99.90;;;;;;4992664;28;20228;-51
2021/03/08 08:08:34;;;;;;;6.70;2.13;;;0.30;99.90;;;;;;4994778;28;20188;-57
2021/03/08 08:11:02;;;;;;;4.87;1.93;;;0.40;99.90;;;;;;4992682;28;20199;-48
2021/03/08 08:13:52;;;;;;;4.80;2.27;;;0.50;99.90;;;;;;4992994;28;20232;-52
2021/03/08 08:16:21;;;;;;;8.00;2.47;;;0.70;99.90;;;;;;5002579;28;20206;-52
2021/03/08 08:18:49;;;;;;;7.70;2.10;;;0.80;99.90;;;;;;4986797;28;20185;-56
2021/03/08 08:21:18;;;;;;;5.40;2.00;;;1.00;99.90;;;;;;4984941;28;20312;-50
2021/03/08 08:23:46;;;;;;;4.43;1.63;;;1.10;99.90;;;;;;4997790;28;20182;-56
2021/03/08 08:26:15;;;;;;;3.23;1.40;;;1.20;99.90;;;;;;4991619;28;20357;-50
2021/03/08 08:28:44;;;;;;;3.60;1.40;;;1.30;99.90;;;;;;4995475;28;20188;-55
2021/03/08 08:31:10;;;;;;;5.57;1.40;;;1.30;99.90;;;;;;4987802;28;20189;-56
2021/03/08 08:33:36;;;;;;;4.07;1.27;;;1.40;99.90;;;;;;5005024;28;20236;-54
2021/03/08 08:36:13;;;;;;;4.73;1.33;;;1.50;99.90;;;;;;4984673;28;20200;-53
2021/03/08 08:38:39;;;;;;;3.10;1.20;;;1.60;99.90;;;;;;4999901;28;20193;-56
2021/03/08 08:41:24;;;;;;;7.63;1.40;;;1.70;99.90;;;;;;4988725;28;21978;-54
2021/03/08 08:44:09;;;;;;;2.37;0.90;;;1.80;99.90;;;;;;4992514;28;20723;-55
2021/03/08 08:46:37;;;;;;;3.33;1.10;;;1.90;99.90;;;;;;5004929;28;20243;-53
2021/03/08 08:49:07;;;;;;;2.27;1.03;;;2.00;99.90;;;;;;4997554;28;20272;-51
2021/03/08 08:51:52;;;;;;;3.07;0.90;;;2.00;99.90;;;;;;4992896;28;20277;-49
2021/03/08 08:54:27;;;;;;;3.30;1.20;;;2.10;99.90;;;;;;5000100;28;20592;-51
2021/03/08 08:57:07;;;;;;;2.97;1.30;;;2.20;99.90;;;;;;4996988;28;20745;-55
2021/03/08 08:59:34;;;;;;;1.83;1.10;;;2.20;99.90;;;;;;4986437;28;20195;-50
2021/03/08 09:02:19;;;;;;;2.73;0.90;;;2.30;99.90;;;;;;4985599;28;20969;-53
2021/03/08 09:04:45;;;;;;;1.63;0.80;;;2.30;99.90;;;;;;4992472;28;20266;-50
2021/03/08 09:07:27;;;;;;;3.63;1.27;;;2.40;99.90;;;;;;4986123;28;25096;-52
2021/03/08 09:10:02;;;;;;;1.10;1.00;;;2.40;99.90;;;;;;4991507;28;20537;-51
2021/03/08 09:12:41;;;;;;;3.13;0.80;;;2.50;99.90;;;;;;4984354;28;20189;-54
2021/03/08 09:15:11;;;;;;;3.70;0.83;;;2.60;99.90;;;;;;4992425;28;20206;-48
2021/03/08 09:17:48;;;;;;;3.80;1.10;;;2.60;99.90;;;;;;5002813;28;20181;-49
2021/03/08 09:20:13;;;;;;;0.97;0.77;;;2.70;99.90;;;;;;4997500;28;20328;-50
2021/03/08 09:22:53;;;;;;;5.33;1.00;;;2.80;99.90;;;;;;4988633;28;20878;-53
2021/03/08 09:25:23;;;;;;;4.90;1.10;;;2.80;99.90;;;;;;4992462;28;20201;-51
2021/03/08 09:27:58;;;;;;;2.37;0.60;;;2.90;99.90;;;;;;4995447;28;20183;-49
2021/03/08 09:30:36;;;;;;;2.73;0.97;;;3.10;99.90;;;;;;4996123;28;20238;-51
2021/03/08 09:33:17;;;;;;;2.40;0.73;;;3.20;99.90;;;;;;4995482;28;21631;-52
2021/03/08 09:35:50;;;;;;;2.47;1.07;;;3.30;99.90;;;;;;5001687;28;20476;-55
2021/03/08 09:38:18;;;;;;;1.50;0.77;;;3.30;99.90;;;;;;4989818;28;20206;-53
2021/03/08 09:40:53;;;;;;;1.30;0.70;;;3.30;99.90;;;;;;4997671;28;20222;-52
2021/03/08 09:43:33;;;;;;;1.10;0.77;;;3.30;99.90;;;;;;4992534;28;20183;-53
2021/03/08 09:46:02;;;;;;;3.53;0.80;;;3.40;99.90;;;;;;4989426;28;20219;-48
2021/03/08 09:48:29;;;;;;;1.07;0.70;;;3.50;99.90;;;;;;4981278;28;20192;-51
2021/03/08 09:51:04;;;;;;;2.50;0.57;;;3.50;99.90;;;;;;5002131;28;20200;-52
2021/03/08 09:53:43;;;;;;;4.53;0.80;;;3.50;99.90;;;;;;4981918;28;20194;-50
2021/03/08 09:56:12;;;;;;;1.10;0.50;;;3.50;99.90;;;;;;4992384;28;20316;-57
2021/03/08 09:58:39;;;;;;;3.70;0.57;;;3.50;99.90;;;;;;5002861;28;20188;-50
2021/03/08 10:01:19;;;;;;;1.90;0.77;;;3.50;99.90;;;;;;4999287;28;20766;-51
2021/03/08 10:03:45;;;;;;;1.10;0.57;;;3.60;99.90;;;;;;4994044;28;20202;-50
2021/03/08 10:06:28;;;;;;;0.70;0.63;;;3.60;99.90;;;;;;5002306;28;20204;-54
2021/03/08 10:08:55;;;;;;;2.53;0.47;;;3.70;99.90;;;;;;4979193;28;20196;-52
2021/03/08 10:11:31;;;;;;;1.20;0.40;;;3.80;99.90;;;;;;4994577;28;20188;-48
2021/03/08 10:13:57;;;;;;;3.20;0.30;;;3.80;99.90;;;;;;4990650;28;20184;-51
2021/03/08 10:16:28;;;;;;;0.40;0.30;;;3.90;99.90;;;;;;4995966;28;20238;-53
2021/03/08 10:18:54;;;;;;;1.10;0.70;;;3.90;99.90;;;;;;4997544;28;20192;-54
2021/03/08 10:21:21;;;;;;;2.27;0.40;;;4.00;99.90;;;;;;4996619;28;20169;-53
2021/03/08 10:23:47;;;;;;;0.87;0.43;;;4.00;99.90;;;;;;4989540;28;20181;-52
2021/03/08 10:26:18;;;;;;;0.40;0.40;;;4.10;99.90;;;;;;4984532;28;20328;-50
2021/03/08 10:28:49;;;;;;;2.73;0.50;;;4.10;99.90;;;;;;4998569;28;20319;-52
2021/03/08 10:31:27;;;;;;;1.40;0.53;;;4.20;99.90;;;;;;4996791;28;20193;-51
2021/03/08 10:33:59;;;;;;;4.03;0.97;;;4.30;99.90;;;;;;4989850;28;20189;-52
2021/03/08 10:36:30;;;;;;;2.10;0.50;;;4.30;99.90;;;;;;4988368;28;20200;-51
2021/03/08 10:39:00;;;;;;;1.47;0.90;;;4.30;99.90;;;;;;5004059;28;20219;-52
2021/03/08 10:41:28;;;;;;;1.73;0.60;;;4.40;99.90;;;;;;4980590;28;20858;-52
2021/03/08 10:43:54;;;;;;;2.67;0.40;;;4.50;99.90;;;;;;5002958;28;20308;-50
2021/03/08 10:46:21;;;;;;;0.73;0.50;;;4.60;99.70;;;;;;4992837;28;20267;-53
2021/03/08 10:48:54;;;;;;;1.90;0.50;;;4.50;98.90;;;;;;4992216;28;20217;-50
2021/03/08 10:51:20;;;;;;;1.10;0.50;;;4.50;96.80;;;;;;4986368;28;20704;-49
2021/03/08 10:53:56;;;;;;;0.67;0.50;;;4.60;97.80;;;;;;4997410;28;20181;-50
2021/03/08 10:56:23;;;;;;;0.47;0.33;;;4.70;96.20;;;;;;4988492;28;20704;-54
2021/03/08 10:58:49;;;;;;;2.30;0.40;;;4.80;95.50;;;;;;4987511;28;20189;-53
2021/03/08 11:01:15;;;;;;;2.27;0.80;;;4.90;95.90;;;;;;4999361;28;20183;-54
2021/03/08 11:03:42;;;;;;;0.43;0.33;;;4.90;95.40;;;;;;4999476;28;20264;-54
2021/03/08 11:06:08;;;;;;;0.60;0.20;;;4.90;91.60;;;;;;4990246;28;20296;-52
2021/03/08 11:08:39;;;;;;;1.30;0.63;;;4.90;92.50;;;;;;4991844;28;20197;-49
2021/03/08 11:11:18;;;;;;;1.30;0.60;;;5.00;91.00;;;;;;4997401;28;20240;-53
2021/03/08 11:13:44;;;;;;;3.80;0.50;;;5.10;89.20;;;;;;4997701;28;20943;-52
2021/03/08 11:16:11;;;;;;;2.20;0.73;;;5.10;90.50;;;;;;5003324;28;20236;-55
2021/03/08 11:18:37;;;;;;;2.27;0.33;;;5.10;90.40;;;;;;4997290;28;20215;-53
2021/03/08 11:21:26;;;;;;;2.60;0.60;;;5.10;90.20;;;;;;4992780;28;20224;-50
2021/03/08 11:23:53;;;;;;;1.20;0.40;;;5.10;86.40;;;;;;4989684;28;20212;-50
2021/03/08 11:26:20;;;;;;;0.93;0.50;;;5.20;87.30;;;;;;4987125;28;20224;-55
2021/03/08 11:28:46;;;;;;;0.73;0.50;;;5.20;88.10;;;;;;4990567;28;20279;-50
2021/03/08 11:31:19;;;;;;;0.90;0.50;;;5.30;84.60;;;;;;4992973;28;20216;-49
2021/03/08 11:33:48;;;;;;;0.70;0.50;;;5.40;83.40;;;;;;4991475;28;20272;-48
2021/03/08 11:36:13;;;;;;;1.43;0.60;;;5.40;82.30;;;;;;4987899;28;20279;-53
2021/03/08 11:38:48;;;;;;;1.50;0.70;;;5.40;83.50;;;;;;4995552;28;20629;-52
2021/03/08 11:41:14;;;;;;;2.20;1.13;;;5.30;82.20;;;;;;4996152;28;20227;-51
2021/03/08 11:43:40;;;;;;;3.17;1.00;;;5.30;82.20;;;;;;4981923;28;20629;-53
2021/03/08 11:46:06;;;;;;;4.00;1.70;;;5.40;82.20;;;;;;5002691;28;20209;-51
2021/03/08 11:48:31;;;;;;;4.37;1.67;;;5.50;81.40;;;;;;4999902;28;20192;-52
2021/03/08 11:50:57;;;;;;;6.50;2.50;;;5.40;79.80;;;;;;4998946;28;20201;-50
2021/03/08 11:53:22;;;;;;;9.93;3.97;;;5.50;80.00;;;;;;4987750;28;20189;-48
2021/03/08 11:55:48;;;;;;;7.13;4.00;;;5.60;80.60;;;;;;4989479;28;20570;-50
2021/03/08 11:58:13;;;;;;;16.00;5.70;;;5.70;79.70;;;;;;4971703;28;20185;-54
2021/03/08 12:00:39;;;;;;;11.83;5.03;;;5.80;79.70;;;;;;4996331;28;20181;-50
2021/03/08 12:03:04;;;;;;;10.27;4.63;;;5.90;76.80;;;;;;4983307;28;20270;-49
2021/03/08 12:05:30;;;;;;;9.17;4.53;;;6.10;74.90;;;;;;4994718;28;20259;-49
2021/03/08 12:07:56;;;;;;;8.77;3.43;;;6.10;73.00;;;;;;4988725;28;20717;-50
2021/03/08 12:10:23;;;;;;;8.13;3.53;;;6.00;70.70;;;;;;5001283;28;20204;-51
2021/03/08 12:12:48;;;;;;;3.60;1.60;;;5.90;67.90;;;;;;4985759;28;20192;-49
2021/03/08 12:15:14;;;;;;;1.87;1.77;;;6.00;67.20;;;;;;4988206;28;20227;-47
2021/03/08 12:17:40;;;;;;;2.27;1.60;;;6.20;67.30;;;;;;4997681;28;20185;-47
2021/03/08 12:20:08;;;;;;;3.57;1.80;;;6.20;63.80;;;;;;4999000;28;20173;-47
2021/03/08 12:22:38;;;;;;;1.27;1.10;;;6.20;64.60;;;;;;5003459;28;20546;-47
2021/03/08 12:25:06;;;;;;;3.63;1.20;;;6.20;65.50;;;;;;4987781;28;20219;-47
2021/03/08 12:27:31;;;;;;;1.87;1.10;;;6.30;66.70;;;;;;5003865;28;20624;-48
2021/03/08 12:29:57;;;;;;;1.43;0.73;;;6.40;63.30;;;;;;4974530;28;20213;-51
2021/03/08 12:32:22;;;;;;;0.60;0.50;;;6.40;63.50;;;;;;5002369;28;20189;-47
2021/03/08 12:34:48;;;;;;;1.60;0.67;;;6.40;61.10;;;;;;4994435;28;20177;-54
2021/03/08 12:37:13;;;;;;;1.43;0.83;;;6.40;61.40;;;;;;4981205;28;20885;-47
2021/03/08 12:39:39;;;;;;;0.73;0.60;;;6.50;60.30;;;;;;4992900;28;20225;-48
2021/03/08 12:42:05;;;;;;;0.70;0.40;;;6.50;61.40;;;;;;4993119;28;20187;-47
2021/03/08 12:44:30;;;;;;;1.97;1.10;;;6.60;60.70;;;;;;4998229;28;20193;-49
2021/03/08 12:46:56;;;;;;;0.77;0.60;;;6.60;61.70;;;;;;4986562;28;20216;-55
2021/03/08 12:49:21;;;;;;;1.53;0.57;;;6.70;60.60;;;;;;4996449;28;20239;-54
2021/03/08 12:51:47;;;;;;;1.53;0.40;;;6.70;57.20;;;;;;4994492;28;20196;-54
2021/03/08 12:54:12;;;;;;;1.67;0.53;;;6.70;59.30;;;;;;4988787;28;20185;-51
2021/03/08 12:56:38;;;;;;;1.03;0.60;;;6.90;58.10;;;;;;4997431;28;20342;-49
2021/03/08 12:59:04;;;;;;;3.03;0.53;;;6.90;58.10;;;;;;4987584;28;20211;-54
2021/03/08 13:01:29;;;;;;;1.80;0.50;;;7.00;59.40;;;;;;4984410;28;20691;-52
2021/03/08 13:03:55;;;;;;;2.83;0.40;;;6.90;58.40;;;;;;4988523;28;20185;-53
2021/03/08 13:06:21;;;;;;;0.77;0.50;;;6.80;58.30;;;;;;4998198;28;20205;-52